Time;durP1;ratioP1;P1;durP2;ratioP2;P2;SDS_P1;SDS_P2;PMS_P1;PMS_P2;Temp;Humidity;BMP_temperature;BMP_pressure;BME280_temperature;BME280_humidity;BME280_pressure;Samples;Min_cycle;Max_cycle;Signal;HPM_P1;HPM_P2
2022/04/16 00:01:43;;;;;;;3.92;3.72;;;;;;;5.87;100.00;102454.25;6085133;23;20077;-73
2022/04/16 00:04:10;;;;;;;3.92;3.72;;;;;;;5.98;100.00;102478.59;6123546;23;20642;-73
2022/04/16 00:06:37;;;;;;;5.00;4.80;;;;;;;6.11;100.00;102496.78;6087047;23;20351;-73
2022/04/16 00:09:04;;;;;;;4.15;3.80;;;;;;;6.05;100.00;102494.19;6116619;23;20021;-73
2022/04/16 00:11:30;;;;;;;3.92;3.72;;;;;;;5.86;100.00;102462.97;6086745;23;20014;-73
2022/04/16 00:13:57;;;;;;;3.50;3.40;;;;;;;5.75;100.00;102442.19;6113234;23;20057;-72
2022/04/16 00:16:23;;;;;;;4.60;4.43;;;;;;;5.51;100.00;102404.06;6082113;23;20042;-73
2022/04/16 00:18:50;;;;;;;3.53;3.42;;;;;;;5.73;100.00;102446.53;6099586;23;20640;-73
2022/04/16 00:21:17;;;;;;;3.60;3.50;;;;;;;5.89;100.00;102467.28;6092234;23;20032;-73
2022/04/16 00:23:44;;;;;;;3.97;3.78;;;;;;;5.72;100.00;102450.00;6113955;23;20527;-73
2022/04/16 00:26:13;;;;;;;3.92;3.72;;;;;;;5.77;100.00;102470.81;6083720;23;20085;-73
2022/04/16 00:28:39;;;;;;;4.97;4.68;;;;;;;4.84;100.00;102323.59;6114283;23;20018;-71
2022/04/16 00:31:06;;;;;;;4.00;3.80;;;;;;;5.64;100.00;102469.13;6093516;23;20089;-71
2022/04/16 00:33:33;;;;;;;5.68;5.32;;;;;;;5.55;100.00;102454.38;6117128;23;20025;-71
2022/04/16 00:36:00;;;;;;;5.20;4.18;;;;;;;5.71;100.00;102494.28;6099378;23;20025;-73
2022/04/16 00:38:27;;;;;;;4.88;4.68;;;;;;;4.47;100.00;102275.13;6110113;23;20041;-73
2022/04/16 00:40:54;;;;;;;3.67;3.55;;;;;;;5.19;100.00;102409.34;6092662;23;20158;-71
2022/04/16 00:43:21;;;;;;;3.92;3.72;;;;;;;5.65;100.00;102509.94;6108982;23;20010;-71
2022/04/16 00:45:48;;;;;;;3.40;3.30;;;;;;;5.49;100.00;102447.50;6087125;23;20093;-71
2022/04/16 00:48:15;;;;;;;3.60;3.50;;;;;;;5.55;100.00;102468.28;6121659;23;20072;-71
2022/04/16 00:50:43;;;;;;;5.25;4.97;;;;;;;5.68;100.00;102481.28;6085636;23;20030;-71
2022/04/16 00:53:12;;;;;;;3.60;3.47;;;;;;;5.49;100.00;102463.09;6115241;23;20107;-73
2022/04/16 00:55:38;;;;;;;5.80;5.50;;;;;;;5.46;100.00;102457.91;6084809;23;20045;-73
2022/04/16 00:58:05;;;;;;;3.70;3.60;;;;;;;5.62;100.00;102484.75;6097733;23;20108;-71
2022/04/16 01:00:31;;;;;;;5.45;5.25;;;;;;;5.51;100.00;102476.09;6090069;23;20018;-71
2022/04/16 01:02:58;;;;;;;3.60;3.50;;;;;;;5.55;100.00;102488.25;6113635;23;20042;-70
2022/04/16 01:05:24;;;;;;;4.10;3.92;;;;;;;5.41;100.00;102470.03;6091818;23;20486;-71
2022/04/16 01:08:02;;;;;;;3.60;3.50;;;;;;;5.53;100.00;102492.59;6114833;23;20431;-71
2022/04/16 01:10:30;;;;;;;6.47;6.07;;;;;;;5.48;100.00;102499.56;6081258;23;20014;-72
2022/04/16 01:13:02;;;;;;;3.30;3.20;;;;;;;5.42;100.00;102497.81;6125324;23;20584;-72
2022/04/16 01:15:29;;;;;;;5.97;5.68;;;;;;;5.37;100.00;102494.34;6084698;23;20292;-72
2022/04/16 01:17:58;;;;;;;3.50;3.40;;;;;;;5.15;100.00;102470.09;6103138;23;20446;-72
2022/04/16 01:20:25;;;;;;;4.82;4.63;;;;;;;5.14;100.00;102469.22;6104393;23;20088;-72
2022/04/16 01:22:52;;;;;;;4.20;3.90;;;;;;;5.27;100.00;102506.53;6079444;23;20379;-71
2022/04/16 01:25:19;;;;;;;3.60;3.50;;;;;;;5.23;100.00;102502.19;6099743;23;20264;-71
2022/04/16 01:27:46;;;;;;;4.05;3.85;;;;;;;5.18;100.00;102504.78;6114397;23;20083;-71
2022/04/16 01:30:14;;;;;;;3.80;3.70;;;;;;;5.19;100.00;102511.75;6092526;23;20045;-71
2022/04/16 01:32:40;;;;;;;4.28;4.07;;;;;;;4.49;100.00;102386.88;6114441;23;20085;-71
2022/04/16 01:35:07;;;;;;;3.65;3.55;;;;;;;3.95;100.00;102303.72;6084960;23;20026;-73
2022/04/16 01:37:35;;;;;;;5.60;5.30;;;;;;;4.62;100.00;102411.16;6109054;23;20015;-71
2022/04/16 01:40:07;;;;;;;3.40;3.30;;;;;;;5.14;100.00;102518.69;6065681;23;20033;-71
2022/04/16 01:42:34;;;;;;;5.15;4.85;;;;;;;4.95;100.00;102496.13;6111455;23;20263;-71
2022/04/16 01:45:03;;;;;;;3.40;3.30;;;;;;;5.06;100.00;102515.22;6094733;23;20038;-71
2022/04/16 01:47:29;;;;;;;5.50;5.30;;;;;;;4.88;100.00;102489.19;6103433;23;20103;-71
2022/04/16 01:49:56;;;;;;;4.00;3.60;;;;;;;4.25;100.00;102391.22;6084344;23;20014;-71
2022/04/16 01:52:23;;;;;;;4.63;4.40;;;;;;;4.66;100.00;102472.72;6116744;23;20119;-71
2022/04/16 01:54:50;;;;;;;3.50;3.40;;;;;;;4.88;100.00;102518.66;6090428;23;20026;-71
2022/04/16 01:57:18;;;;;;;3.38;3.28;;;;;;;4.84;100.00;102518.69;6110912;23;20529;-71
2022/04/16 01:59:46;;;;;;;3.58;3.47;;;;;;;4.58;100.00;102486.56;6094656;23;20026;-72
2022/04/16 02:02:13;;;;;;;4.32;4.13;;;;;;;4.60;100.00;102500.44;6109661;23;20059;-71
2022/04/16 02:04:40;;;;;;;5.15;4.95;;;;;;;4.29;100.00;102452.72;6092550;23;20435;-71
2022/04/16 02:07:07;;;;;;;4.22;4.03;;;;;;;4.67;100.00;102532.53;6109944;23;20027;-71
2022/04/16 02:09:34;;;;;;;4.88;4.68;;;;;;;4.08;100.00;102432.72;6098521;23;20022;-71
2022/04/16 02:12:00;;;;;;;3.55;3.45;;;;;;;4.60;100.00;102529.03;6111798;23;20474;-72
2022/04/16 02:14:26;;;;;;;5.32;5.13;;;;;;;4.56;100.00;102529.88;6079536;23;20337;-70
2022/04/16 02:16:53;;;;;;;3.67;3.55;;;;;;;4.53;100.00;102532.50;6114072;23;20104;-71
2022/04/16 02:19:20;;;;;;;3.40;3.30;;;;;;;4.19;100.00;102500.34;6083865;23;20030;-71
2022/04/16 02:21:47;;;;;;;3.30;3.20;;;;;;;4.48;100.00;102543.75;6097192;23;20237;-70
2022/04/16 02:24:14;;;;;;;3.38;3.28;;;;;;;4.43;100.00;102542.84;6092057;23;20443;-71
2022/04/16 02:26:40;;;;;;;3.70;3.50;;;;;;;4.10;100.00;102495.09;6132874;23;20045;-71
2022/04/16 02:29:10;;;;;;;3.50;3.40;;;;;;;4.36;100.00;102548.03;6121197;23;20017;-71
2022/04/16 02:31:37;;;;;;;5.43;5.13;;;;;;;3.96;100.00;102493.31;6122590;23;20077;-71
2022/04/16 02:34:08;;;;;;;4.38;4.00;;;;;;;4.30;100.00;102562.75;6117604;23;20036;-71
2022/04/16 02:36:35;;;;;;;5.75;5.53;;;;;;;4.22;100.00;102556.66;6109552;23;20102;-71
2022/04/16 02:39:02;;;;;;;3.30;3.20;;;;;;;3.79;100.00;102488.06;6122714;23;20076;-71
2022/04/16 02:41:28;;;;;;;5.38;5.18;;;;;;;3.84;100.00;102506.25;6109826;23;20052;-71
2022/04/16 02:43:55;;;;;;;3.50;3.40;;;;;;;3.95;100.00;102527.97;6118392;23;20044;-72
2022/04/16 02:47:08;;;;;;;3.55;3.42;;;;;;;3.67;100.00;102482.81;6129981;23;20013;-71
2022/04/16 02:49:09;;;;;;;3.50;3.40;;;;;;;4.06;100.00;102542.72;6102336;23;20021;-71
2022/04/16 02:51:36;;;;;;;5.90;5.50;;;;;;;4.15;100.00;102569.63;6094314;23;20015;-71
2022/04/16 02:54:02;;;;;;;3.70;3.55;;;;;;;3.69;100.00;102486.28;6123150;23;20379;-71
2022/04/16 02:56:29;;;;;;;5.45;5.25;;;;;;;3.54;100.00;102461.06;6076460;23;20052;-71
2022/04/16 02:58:55;;;;;;;3.40;3.30;;;;;;;4.04;100.00;102560.88;6090533;23;20065;-71
2022/04/16 03:01:22;;;;;;;4.00;3.80;;;;;;;3.86;100.00;102546.06;6113881;23;20129;-71
2022/04/16 03:03:48;;;;;;;5.80;4.38;;;;;;;4.03;100.00;102571.25;6117190;23;20088;-71
2022/04/16 03:06:15;;;;;;;3.28;3.17;;;;;;;3.98;100.00;102566.91;6117064;23;20028;-71
2022/04/16 03:08:41;;;;;;;3.65;3.50;;;;;;;3.97;100.00;102570.38;6111905;23;20278;-71
2022/04/16 03:11:07;;;;;;;3.60;3.50;;;;;;;3.73;100.00;102537.34;6124799;23;20022;-71
2022/04/16 03:13:34;;;;;;;6.10;5.53;;;;;;;3.63;100.00;102521.69;6122660;23;20537;-71
2022/04/16 03:18:47;;;;;;;3.30;3.20;;;;;;;3.51;100.00;102528.56;6108792;23;20009;-71
2022/04/16 03:21:13;;;;;;;4.30;4.10;;;;;;;3.89;100.00;102572.06;6124500;23;20018;-72
2022/04/16 03:23:40;;;;;;;4.45;4.25;;;;;;;3.58;100.00;102532.91;6117866;23;20266;-71
2022/04/16 03:26:06;;;;;;;3.28;3.17;;;;;;;2.57;100.00;102381.75;6138614;23;20028;-71
2022/04/16 03:28:33;;;;;;;5.78;5.53;;;;;;;2.95;100.00;102470.22;6123677;23;20080;-73
2022/04/16 03:31:00;;;;;;;3.92;3.72;;;;;;;3.45;100.00;102544.09;6127935;23;20107;-71
2022/04/16 03:33:26;;;;;;;5.03;4.75;;;;;;;3.32;100.00;102521.50;6114825;23;20029;-72
2022/04/16 03:35:53;;;;;;;3.92;3.72;;;;;;;3.11;100.00;102486.75;6115935;23;20509;-72
2022/04/16 03:38:19;;;;;;;4.88;4.57;;;;;;;3.65;100.00;102583.19;6115376;23;20322;-72
2022/04/16 03:40:48;;;;;;;4.07;3.88;;;;;;;3.54;100.00;102564.91;6112962;23;20032;-71
2022/04/16 03:43:16;;;;;;;3.30;3.20;;;;;;;3.60;100.00;102583.13;6117480;23;20085;-71
2022/04/16 03:45:42;;;;;;;3.70;3.50;;;;;;;3.14;100.00;102512.72;6109786;23;20442;-72
2022/04/16 03:48:09;;;;;;;3.20;3.10;;;;;;;3.55;100.00;102579.66;6118521;23;20238;-72
2022/04/16 03:50:35;;;;;;;4.78;4.57;;;;;;;3.33;100.00;102552.66;6114977;23;20097;-72
2022/04/16 03:53:03;;;;;;;3.88;3.67;;;;;;;3.52;100.00;102583.94;6122024;23;20368;-72
2022/04/16 04:01:05;;;;;;;3.70;3.60;;;;;;;3.32;100.00;102569.06;6115496;23;20434;-71
2022/04/16 04:03:31;;;;;;;5.05;4.85;;;;;;;3.30;100.00;102557.81;6112205;23;20021;-72
2022/04/16 04:06:00;;;;;;;3.42;3.33;;;;;;;3.47;100.00;102586.50;6118526;23;20013;-72
2022/04/16 04:08:27;;;;;;;4.93;4.72;;;;;;;3.45;100.00;102583.03;6108888;23;20025;-72
2022/04/16 04:10:54;;;;;;;3.30;3.20;;;;;;;3.39;100.00;102572.59;6112447;23;20017;-70
2022/04/16 04:13:20;;;;;;;3.53;3.38;;;;;;;3.36;100.00;102567.38;6116258;23;20068;-72
2022/04/16 04:15:47;;;;;;;3.30;3.20;;;;;;;3.37;100.00;102564.81;6108492;23;20045;-72
2022/04/16 04:18:14;;;;;;;3.20;3.10;;;;;;;3.33;100.00;102564.78;6084426;23;20005;-71
2022/04/16 04:20:40;;;;;;;3.88;3.72;;;;;;;3.55;100.00;102591.75;6097366;23;20334;-71
2022/04/16 04:23:07;;;;;;;3.72;3.55;;;;;;;3.66;100.00;102597.88;6110819;23;20043;-71
2022/04/16 04:25:33;;;;;;;5.82;5.53;;;;;;;3.78;100.00;102612.69;6122125;23;20360;-71
2022/04/16 04:28:00;;;;;;;3.20;3.10;;;;;;;3.58;100.00;102555.44;6099781;23;20021;-71
2022/04/16 04:30:26;;;;;;;4.13;3.92;;;;;;;3.83;100.00;102607.50;6124661;23;20056;-71
2022/04/16 04:32:56;;;;;;;3.40;3.30;;;;;;;3.59;100.00;102584.00;6120842;23;20089;-71
2022/04/16 04:35:23;;;;;;;3.58;3.47;;;;;;;3.02;100.00;102491.00;6072819;23;20040;-71
2022/04/16 04:37:50;;;;;;;3.60;3.47;;;;;;;3.62;100.00;102595.25;6099385;23;20092;-71
2022/04/16 04:40:16;;;;;;;3.30;3.20;;;;;;;3.51;100.00;102585.69;6110385;23;20592;-71
2022/04/16 04:42:42;;;;;;;3.20;3.10;;;;;;;3.57;100.00;102590.06;6108901;23;20020;-72
2022/04/16 04:45:12;;;;;;;2.95;2.85;;;;;;;3.38;100.00;102558.75;6093910;23;20185;-73
2022/04/16 04:47:38;;;;;;;5.25;5.05;;;;;;;3.80;100.00;102621.34;6125520;23;20033;-73
2022/04/16 04:50:06;;;;;;;3.20;3.10;;;;;;;3.83;100.00;102625.69;6113602;23;20037;-73
2022/04/16 04:52:36;;;;;;;5.18;4.97;;;;;;;3.50;100.00;102580.47;6128178;23;20052;-73
2022/04/16 04:55:07;;;;;;;3.22;3.13;;;;;;;3.90;100.00;102625.75;6113365;23;20466;-71
2022/04/16 04:57:34;;;;;;;5.20;4.90;;;;;;;2.83;100.00;102431.22;6085524;23;20447;-71
2022/04/16 05:00:00;;;;;;;4.00;3.72;;;;;;;3.88;100.00;102601.50;6128155;23;20010;-71
2022/04/16 05:02:26;;;;;;;4.95;4.75;;;;;;;4.15;100.00;102620.69;6086014;23;20356;-71
2022/04/16 05:04:56;;;;;;;3.47;3.38;;;;;;;4.17;100.00;102609.47;6119301;23;20028;-71
2022/04/16 05:07:23;;;;;;;3.50;3.40;;;;;;;4.29;100.00;102603.47;6122757;23;20021;-70
2022/04/16 05:09:49;;;;;;;3.20;3.10;;;;;;;4.61;100.00;102646.94;6122247;23;20490;-70
2022/04/16 05:12:15;;;;;;;3.92;3.72;;;;;;;4.71;100.00;102642.63;6125963;23;20227;-70
2022/04/16 05:14:42;;;;;;;3.30;3.20;;;;;;;4.27;100.00;102561.00;6133795;23;20069;-70
2022/04/16 05:17:08;;;;;;;3.92;3.78;;;;;;;4.85;100.00;102647.88;6134860;23;20663;-70
2022/04/16 05:19:35;;;;;;;4.97;4.78;;;;;;;4.76;100.00;102639.16;6120290;23;20633;-71
2022/04/16 05:22:01;;;;;;;3.03;2.92;;;;;;;4.94;100.00;102660.91;6115122;23;20097;-71
2022/04/16 05:24:27;;;;;;;3.53;3.30;;;;;;;4.70;100.00;102602.75;6124938;23;20032;-72
2022/04/16 05:26:54;;;;;;;3.40;3.30;;;;;;;4.79;100.00;102607.97;6129663;23;20026;-72
2022/04/16 05:29:24;;;;;;;3.58;3.47;;;;;;;5.08;100.00;102627.97;6121292;23;20055;-73
2022/04/16 05:31:51;;;;;;;3.60;3.50;;;;;;;5.40;100.00;102666.22;6109688;23;20450;-72
2022/04/16 05:34:18;;;;;;;3.60;3.40;;;;;;;5.56;100.00;102665.34;6099031;23;20102;-72
2022/04/16 05:36:49;;;;;;;3.50;3.40;;;;;;;5.88;100.00;102667.06;6125082;23;20020;-72
2022/04/16 05:39:19;;;;;;;3.30;3.20;;;;;;;6.10;100.00;102604.53;6113214;23;20096;-73
2022/04/16 05:41:45;;;;;;;4.22;4.03;;;;;;;7.21;100.00;102680.53;6109504;23;20020;-73
2022/04/16 05:44:12;;;;;;;3.50;3.40;;;;;;;7.76;100.00;102664.47;6116490;23;20603;-72
2022/04/16 05:46:38;;;;;;;5.30;5.10;;;;;;;7.92;100.00;102651.25;6112071;23;20080;-73
2022/04/16 05:49:05;;;;;;;4.20;4.00;;;;;;;7.93;100.00;102673.88;6116240;23;20284;-70
2022/04/16 05:51:31;;;;;;;5.25;5.05;;;;;;;7.77;100.00;102655.72;6121321;23;20604;-70
2022/04/16 05:54:02;;;;;;;4.70;4.40;;;;;;;7.76;100.00;102666.22;6114979;23;20226;-71
2022/04/16 05:56:29;;;;;;;5.63;5.43;;;;;;;7.34;100.00;102636.94;6103509;23;20424;-70
2022/04/16 05:58:56;;;;;;;3.70;3.60;;;;;;;7.50;100.00;102672.50;6125768;23;20468;-71
2022/04/16 06:01:23;;;;;;;4.50;4.30;;;;;;;7.55;100.00;102673.34;6119553;23;20025;-71
2022/04/16 06:03:50;;;;;;;4.43;4.22;;;;;;;7.22;100.00;102639.63;6089851;23;20009;-70
2022/04/16 06:06:17;;;;;;;4.00;3.80;;;;;;;7.07;100.00;102638.00;6101293;23;20020;-70
2022/04/16 06:08:43;;;;;;;4.20;4.00;;;;;;;7.09;100.00;102642.31;6110514;23;20127;-69
2022/04/16 06:11:11;;;;;;;4.35;4.15;;;;;;;7.18;100.00;102638.78;6110616;23;20435;-70
2022/04/16 06:13:37;;;;;;;5.40;5.20;;;;;;;7.45;100.00;102678.66;6103572;23;20017;-70
2022/04/16 06:16:06;;;;;;;3.63;3.53;;;;;;;7.61;100.00;102695.06;6136051;23;20021;-69
2022/04/16 06:18:32;;;;;;;5.63;5.35;;;;;;;7.73;100.00;102689.75;6106702;23;20037;-70
2022/04/16 06:20:59;;;;;;;4.22;4.00;;;;;;;7.79;100.00;102694.91;6086737;23;20359;-70
2022/04/16 06:23:25;;;;;;;4.43;4.22;;;;;;;7.90;100.00;102690.47;6105149;23;20462;-69
2022/04/16 06:25:52;;;;;;;4.07;3.88;;;;;;;7.97;100.00;102697.38;6132824;23;20081;-70
2022/04/16 06:28:19;;;;;;;3.97;3.78;;;;;;;8.08;100.00;102692.06;6102681;23;20156;-70
2022/04/16 06:30:45;;;;;;;4.55;4.35;;;;;;;8.23;100.00;102696.25;6109267;23;20049;-70
2022/04/16 06:33:12;;;;;;;3.70;3.60;;;;;;;8.15;99.51;102671.94;6109880;23;20078;-70
2022/04/16 06:35:38;;;;;;;5.35;5.15;;;;;;;8.40;100.00;102693.47;6101060;23;20013;-70
2022/04/16 06:38:05;;;;;;;4.30;3.90;;;;;;;8.52;100.00;102698.59;6110349;23;20030;-70
2022/04/16 06:40:31;;;;;;;5.70;5.40;;;;;;;8.59;97.65;102695.00;6104449;23;20026;-69
2022/04/16 06:42:58;;;;;;;4.00;3.80;;;;;;;8.68;96.68;102687.94;6094446;23;20014;-70
2022/04/16 06:45:25;;;;;;;4.47;4.28;;;;;;;8.79;97.58;102681.69;6118553;23;20045;-70
2022/04/16 06:47:51;;;;;;;4.03;3.83;;;;;;;8.87;94.88;102694.69;6115806;23;20391;-70
2022/04/16 06:50:17;;;;;;;4.03;3.83;;;;;;;8.48;94.40;102607.06;6123256;23;20504;-70
2022/04/16 06:52:45;;;;;;;3.90;3.75;;;;;;;9.10;94.17;102706.59;6107567;23;20081;-70
2022/04/16 06:55:12;;;;;;;4.65;4.35;;;;;;;8.91;90.47;102661.47;6127898;23;20026;-69
2022/04/16 06:57:39;;;;;;;5.63;5.32;;;;;;;9.28;89.34;102705.47;6105203;23;20368;-70
2022/04/16 07:00:06;;;;;;;3.80;3.70;;;;;;;9.30;88.99;102693.22;6099519;23;20081;-71
2022/04/16 07:02:33;;;;;;;5.90;5.60;;;;;;;9.37;88.69;102685.25;6094948;23;20092;-70
2022/04/16 07:05:02;;;;;;;4.00;3.80;;;;;;;9.47;89.05;102682.50;6114376;23;20025;-70
2022/04/16 07:07:29;;;;;;;5.65;5.40;;;;;;;9.25;87.23;102650.50;6097134;23;20085;-70
2022/04/16 07:09:56;;;;;;;4.05;3.85;;;;;;;9.47;87.38;102664.16;6102798;23;20025;-70
2022/04/16 07:12:22;;;;;;;4.10;3.90;;;;;;;9.46;86.41;102665.00;6115012;23;20276;-70
2022/04/16 07:14:49;;;;;;;5.00;4.80;;;;;;;9.64;85.46;102690.06;6116643;23;20025;-71
2022/04/16 07:17:19;;;;;;;4.15;3.95;;;;;;;9.77;85.25;102709.97;6095604;23;20437;-70
2022/04/16 07:19:46;;;;;;;4.10;3.90;;;;;;;9.66;86.15;102676.06;6098904;23;20247;-70
2022/04/16 07:22:12;;;;;;;4.72;4.53;;;;;;;9.83;85.17;102652.16;6102339;23;20548;-70
2022/04/16 07:24:42;;;;;;;5.65;5.43;;;;;;;9.90;85.32;102645.03;6079428;23;20036;-70
2022/04/16 07:27:08;;;;;;;4.53;4.32;;;;;;;9.99;80.57;102692.09;6105233;23;20021;-70
2022/04/16 07:29:35;;;;;;;5.68;5.45;;;;;;;9.96;79.10;102669.44;6100305;23;20104;-70
2022/04/16 07:32:01;;;;;;;4.38;4.18;;;;;;;10.26;81.04;102698.59;6090582;23;20486;-70
2022/04/16 07:34:28;;;;;;;5.28;5.07;;;;;;;9.79;79.99;102638.25;6110776;23;20224;-70
2022/04/16 07:36:55;;;;;;;4.43;4.22;;;;;;;10.16;80.38;102681.28;6108484;23;20105;-70
2022/04/16 07:39:21;;;;;;;4.20;4.00;;;;;;;9.31;78.83;102522.88;6106411;23;20029;-70
2022/04/16 07:41:51;;;;;;;4.93;4.63;;;;;;;10.33;79.95;102702.88;6106698;23;20093;-70
2022/04/16 07:44:18;;;;;;;4.57;4.38;;;;;;;10.21;79.58;102668.09;6102856;23;20460;-70
2022/04/16 07:46:45;;;;;;;4.28;4.07;;;;;;;10.56;78.82;102701.56;6115343;23;20095;-70
2022/04/16 07:49:11;;;;;;;4.63;4.43;;;;;;;10.68;76.81;102689.94;6103507;23;20492;-70
2022/04/16 07:51:38;;;;;;;5.60;5.40;;;;;;;10.66;77.33;102692.59;6092071;23;20178;-70
2022/04/16 07:54:04;;;;;;;4.40;4.20;;;;;;;9.68;78.10;102524.84;6108617;23;20318;-70
2022/04/16 07:56:31;;;;;;;5.78;5.47;;;;;;;10.52;77.12;102657.88;6093927;23;20467;-70
2022/04/16 07:58:57;;;;;;;4.32;4.13;;;;;;;10.68;76.82;102666.31;6102796;23;20104;-70
2022/04/16 08:01:23;;;;;;;4.97;4.65;;;;;;;10.57;76.95;102621.91;6074808;23;20073;-70
2022/04/16 08:03:50;;;;;;;4.18;3.97;;;;;;;11.00;74.96;102694.50;6093933;23;20335;-70
2022/04/16 08:06:16;;;;;;;4.35;4.15;;;;;;;10.90;75.35;102658.84;6108424;23;20025;-70
2022/04/16 08:08:43;;;;;;;5.15;4.85;;;;;;;11.05;74.17;102655.88;6086056;23;20309;-70
2022/04/16 08:11:10;;;;;;;4.40;4.20;;;;;;;11.22;75.51;102663.34;6094296;23;20123;-71
2022/04/16 08:13:37;;;;;;;6.38;6.07;;;;;;;11.29;73.37;102708.78;6108858;23;20085;-70
2022/04/16 08:16:04;;;;;;;4.80;4.60;;;;;;;11.04;75.55;102659.38;6119687;23;20052;-70
2022/04/16 08:18:31;;;;;;;6.15;5.85;;;;;;;11.31;73.43;102691.22;6099106;23;20096;-70
2022/04/16 08:20:58;;;;;;;4.20;4.00;;;;;;;11.52;71.87;102695.94;6113426;23;20027;-70
2022/04/16 08:23:26;;;;;;;4.60;4.40;;;;;;;11.53;70.10;102681.03;6070932;23;20020;-70
2022/04/16 08:25:52;;;;;;;4.45;4.25;;;;;;;11.64;70.69;102679.00;6123115;23;20017;-71
2022/04/16 08:28:19;;;;;;;4.75;4.55;;;;;;;11.81;69.11;102697.00;6109690;23;20171;-72
2022/04/16 08:30:45;;;;;;;4.95;4.65;;;;;;;11.70;69.35;102655.16;6103530;23;20021;-71
2022/04/16 08:33:14;;;;;;;4.40;4.20;;;;;;;11.84;68.35;102696.91;6109878;23;20088;-70
2022/04/16 08:35:42;;;;;;;6.10;5.60;;;;;;;11.87;68.59;102711.78;6089556;23;20029;-71
2022/04/16 08:38:10;;;;;;;4.70;4.50;;;;;;;11.28;68.72;102604.53;6105387;23;20029;-71
2022/04/16 08:40:37;;;;;;;6.65;6.25;;;;;;;11.89;66.55;102705.59;6100879;23;20396;-71
2022/04/16 08:43:09;;;;;;;;;;;;;;;11.49;68.49;102700.44;6102369;23;20029;-71
2022/04/16 08:45:37;;;;;;;5.97;5.68;;;;;;;11.24;68.90;102684.34;6098729;23;20252;-72
2022/04/16 08:48:04;;;;;;;4.60;4.40;;;;;;;11.54;69.57;102704.66;6132124;23;20032;-70
2022/04/16 08:50:32;;;;;;;5.45;5.22;;;;;;;11.91;67.59;102709.06;6075947;23;20955;-71
2022/04/16 08:52:59;;;;;;;4.50;4.30;;;;;;;12.38;63.63;102696.38;6094626;23;20189;-72
2022/04/16 08:55:27;;;;;;;5.60;5.35;;;;;;;12.82;61.96;102713.59;6090251;23;20049;-72
2022/04/16 08:57:55;;;;;;;4.68;4.47;;;;;;;13.07;60.70;102680.34;6127108;23;20081;-71
2022/04/16 09:00:21;;;;;;;4.70;4.50;;;;;;;13.25;60.11;102702.63;6103987;23;20336;-72
2022/04/16 09:02:53;;;;;;;4.90;4.70;;;;;;;13.33;59.58;102716.47;6121567;23;20037;-72
2022/04/16 09:05:22;;;;;;;4.57;4.37;;;;;;;13.49;56.20;102723.88;6120370;23;20017;-71
2022/04/16 09:07:50;;;;;;;4.53;4.32;;;;;;;13.21;56.49;102711.56;6108778;23;20029;-71
2022/04/16 09:10:18;;;;;;;4.60;4.40;;;;;;;13.48;51.46;102728.28;6126999;23;20023;-70
2022/04/16 09:12:45;;;;;;;5.00;4.80;;;;;;;13.25;52.36;102694.72;6119975;23;20041;-71
2022/04/16 09:15:13;;;;;;;5.50;5.20;;;;;;;13.71;54.35;102706.47;6132933;23;20028;-70
2022/04/16 09:17:40;;;;;;;6.07;5.68;;;;;;;14.12;53.09;102721.78;6111521;23;20420;-72
2022/04/16 09:20:14;;;;;;;4.70;4.50;;;;;;;14.75;50.38;102723.06;6121090;23;20029;-71
2022/04/16 09:22:49;;;;;;;5.00;4.80;;;;;;;14.94;50.35;102723.22;6108131;23;20228;-72
2022/04/16 09:25:18;;;;;;;5.30;5.00;;;;;;;15.20;48.28;102717.88;6085018;23;20072;-71
2022/04/16 09:27:46;;;;;;;4.90;4.70;;;;;;;14.05;52.78;102730.84;6068370;23;20101;-72
2022/04/16 09:30:22;;;;;;;5.05;4.75;;;;;;;13.56;50.15;102677.94;6077355;23;20049;-71
2022/04/16 09:32:48;;;;;;;4.65;4.45;;;;;;;13.55;51.82;102634.88;6084423;23;20021;-71
2022/04/16 09:35:51;;;;;;;4.80;4.60;;;;;;;14.30;52.89;102731.72;6096707;23;20032;-71
2022/04/16 09:38:17;;;;;;;4.80;4.55;;;;;;;13.57;53.00;102728.00;6031846;23;20012;-71
2022/04/16 09:40:48;;;;;;;5.10;4.90;;;;;;;13.73;53.54;102706.38;6091094;23;20115;-71
2022/04/16 09:43:14;;;;;;;5.20;5.00;;;;;;;13.60;53.78;102721.75;6050004;23;20018;-71
2022/04/16 09:45:42;;;;;;;4.88;4.68;;;;;;;13.67;53.08;102682.84;6086267;23;20168;-71
2022/04/16 09:48:11;;;;;;;4.40;4.20;;;;;;;13.57;52.37;102685.81;6087890;23;20164;-72
2022/04/16 09:50:40;;;;;;;6.65;6.25;;;;;;;14.22;52.57;102723.19;6081511;23;20021;-71
2022/04/16 09:53:07;;;;;;;5.13;4.82;;;;;;;14.81;50.91;102713.19;6082759;23;20029;-73
2022/04/16 09:55:35;;;;;;;6.13;5.82;;;;;;;13.56;48.99;102538.13;6058535;23;20017;-72
2022/04/16 09:58:04;;;;;;;4.90;4.70;;;;;;;14.15;51.12;102663.59;6081655;23;20043;-72
2022/04/16 10:00:37;;;;;;;5.80;5.55;;;;;;;14.01;52.50;102711.63;6080927;23;20014;-72
2022/04/16 10:03:23;;;;;;;4.70;4.50;;;;;;;13.73;50.94;102695.81;6090179;23;20023;-71
2022/04/16 10:05:57;;;;;;;4.57;4.38;;;;;;;13.77;47.47;102693.06;6082137;23;20089;-70
2022/04/16 10:08:25;;;;;;;4.75;4.55;;;;;;;14.15;48.40;102711.09;6069218;23;20011;-72
2022/04/16 10:10:55;;;;;;;4.97;4.70;;;;;;;13.86;48.02;102691.00;6096149;23;20033;-72
2022/04/16 10:13:22;;;;;;;4.75;4.50;;;;;;;13.86;47.95;102678.66;6097605;23;20010;-71
2022/04/16 10:16:17;;;;;;;4.70;4.50;;;;;;;14.37;47.24;102711.22;6101468;23;20040;-71
2022/04/16 10:18:44;;;;;;;;;;;;;;;14.74;44.62;102712.56;6084083;23;20018;-72
2022/04/16 10:21:15;;;;;;;4.65;4.45;;;;;;;15.10;47.18;102705.00;6095647;23;19937;-72
2022/04/16 10:23:44;;;;;;;4.63;4.43;;;;;;;15.29;42.12;102712.19;6108379;23;20045;-72
2022/04/16 10:26:15;;;;;;;4.95;4.65;;;;;;;15.53;42.23;102713.84;6087560;23;20064;-72
2022/04/16 10:28:51;;;;;;;5.38;5.18;;;;;;;15.21;42.94;102709.84;6108335;23;20287;-72
2022/04/16 10:31:28;;;;;;;5.03;4.82;;;;;;;15.61;41.64;102710.03;6092934;23;20081;-72
2022/04/16 10:34:08;;;;;;;4.70;4.50;;;;;;;15.46;39.98;102685.06;6112721;23;20410;-71
2022/04/16 10:36:44;;;;;;;5.63;5.43;;;;;;;15.61;39.20;102705.59;6056501;23;20025;-72
2022/04/16 10:39:15;;;;;;;4.70;4.50;;;;;;;15.51;42.13;102686.56;6083428;23;20119;-72
2022/04/16 10:42:11;;;;;;;5.07;4.80;;;;;;;15.70;40.77;102702.56;6083742;23;20014;-72
2022/04/16 10:44:46;;;;;;;6.07;5.78;;;;;;;15.79;42.56;102701.34;6080296;23;20082;-70
2022/04/16 10:47:14;;;;;;;5.07;4.88;;;;;;;15.77;41.29;102684.66;6073331;23;20045;-71
2022/04/16 10:49:42;;;;;;;5.25;5.05;;;;;;;15.71;40.44;102703.44;6114955;23;20505;-70
2022/04/16 10:52:20;;;;;;;5.00;4.80;;;;;;;15.28;41.50;102694.63;6090856;23;20040;-70
2022/04/16 10:54:47;;;;;;;4.70;4.50;;;;;;;15.31;40.80;102700.63;6103652;23;20052;-70
2022/04/16 10:57:21;;;;;;;5.00;4.80;;;;;;;14.31;42.54;102545.03;6097798;23;20094;-71
2022/04/16 10:59:48;;;;;;;4.63;4.43;;;;;;;15.38;40.61;102645.69;6078767;23;20072;-72
2022/04/16 11:02:28;;;;;;;4.70;4.50;;;;;;;15.58;39.45;102697.78;6070172;23;20145;-72
2022/04/16 11:04:59;;;;;;;5.30;5.00;;;;;;;15.55;40.93;102693.50;6126900;23;20228;-71
2022/04/16 11:07:27;;;;;;;5.20;4.97;;;;;;;15.56;40.94;102676.69;6094971;23;20080;-72
2022/04/16 11:09:54;;;;;;;4.70;4.50;;;;;;;15.78;38.80;102675.81;6116333;23;20036;-72
2022/04/16 11:12:24;;;;;;;4.80;4.60;;;;;;;16.04;39.09;102666.75;6095290;23;20145;-72
2022/04/16 11:14:52;;;;;;;5.28;4.97;;;;;;;14.89;38.32;102597.44;6104398;23;20030;-72
2022/04/16 11:17:22;;;;;;;4.82;4.63;;;;;;;15.23;39.14;102656.88;6096019;23;20025;-72
2022/04/16 11:20:05;;;;;;;4.80;4.60;;;;;;;15.36;39.69;102681.94;6103828;23;20029;-72
2022/04/16 11:22:33;;;;;;;6.47;6.15;;;;;;;15.31;40.76;102678.59;6094403;23;20058;-72
2022/04/16 11:25:04;;;;;;;5.07;4.78;;;;;;;14.76;41.29;102650.78;6102352;23;20048;-72
2022/04/16 11:35:57;;;;;;;5.30;5.00;;;;;;;15.51;40.58;102661.91;6120365;23;20013;-71
2022/04/16 11:38:32;;;;;;;5.25;5.00;;;;;;;15.34;40.78;102665.25;6091941;23;20021;-72
2022/04/16 11:41:01;;;;;;;4.60;4.40;;;;;;;15.39;40.09;102626.22;6117171;23;20043;-71
2022/04/16 11:43:28;;;;;;;5.10;4.90;;;;;;;15.77;40.66;102633.50;6107353;23;20012;-72
2022/04/16 11:45:55;;;;;;;4.80;4.60;;;;;;;15.90;40.14;102663.84;6090401;23;20033;-72
2022/04/16 11:48:22;;;;;;;4.72;4.53;;;;;;;15.63;37.71;102676.41;6102925;23;20001;-72